Time;durP1;ratioP1;P1;durP2;ratioP2;P2;SDS_P1;SDS_P2;PMS_P1;PMS_P2;Temp;Humidity;BMP_temperature;BMP_pressure;BME280_temperature;BME280_humidity;BME280_pressure;Samples;Min_cycle;Max_cycle;Signal;HPM_P1;HPM_P2
2022/10/17 13:45:30;;;;;;;2.25;1.30;;;;;;;22.85;100.00;96606.09;1062375;27;180344;-71
2022/10/17 13:46:04;;;;;;;2.88;1.10;;;;;;;22.70;100.00;96610.88;1051976;28;20020;-72
2022/10/17 13:46:35;;;;;;;3.95;1.25;;;;;;;22.71;100.00;96603.63;1049589;28;20023;-71
2022/10/17 13:47:05;;;;;;;5.05;2.08;;;;;;;22.70;100.00;96612.75;1045611;28;20033;-70
2022/10/17 13:47:36;;;;;;;2.13;1.60;;;;;;;22.75;100.00;96610.69;1043936;28;20025;-73
2022/10/17 13:48:24;;;;;;;2.40;1.90;;;;;;;22.83;100.00;96609.88;1046409;28;20058;-71
2022/10/17 13:48:56;;;;;;;2.85;1.70;;;;;;;22.65;100.00;96608.34;1049793;28;21399;-73
2022/10/17 13:49:29;;;;;;;2.83;1.60;;;;;;;22.81;100.00;96613.97;1053485;28;20016;-72
2022/10/17 13:50:00;;;;;;;5.47;2.10;;;;;;;22.89;100.00;96617.72;1054957;28;20039;-71
2022/10/17 13:50:36;;;;;;;6.93;1.60;;;;;;;22.93;100.00;96602.63;1054028;28;20025;-71
2022/10/17 13:51:07;;;;;;;1.10;1.00;;;;;;;22.77;100.00;96600.47;1049687;28;20024;-72
2022/10/17 13:51:43;;;;;;;3.50;1.20;;;;;;;22.75;100.00;96608.00;1047878;28;20513;-71
2022/10/17 13:52:22;;;;;;;1.45;1.17;;;;;;;22.58;100.00;96595.47;1048081;28;20557;-71
2022/10/17 13:53:42;;;;;;;2.40;0.95;;;;;;;22.66;100.00;96615.28;1047150;28;20039;-72
2022/10/17 13:54:31;;;;;;;4.93;2.50;;;;;;;22.68;100.00;96617.63;1037734;28;20545;-71
2022/10/17 13:55:09;;;;;;;2.50;1.40;;;;;;;22.71;100.00;96614.34;1038331;28;20025;-69
2022/10/17 13:56:24;;;;;;;1.48;1.38;;;;;;;22.59;100.00;96614.97;1027213;28;20026;-70
2022/10/17 13:56:56;;;;;;;4.40;1.48;;;;;;;22.45;100.00;96614.38;1040176;28;20638;-72
2022/10/17 13:57:30;;;;;;;2.25;1.45;;;;;;;22.41;100.00;96608.88;1047591;28;20124;-71
2022/10/17 13:58:40;;;;;;;3.92;1.42;;;;;;;22.50;100.00;96615.00;1044474;28;20475;-70
2022/10/17 13:59:21;;;;;;;1.85;1.60;;;;;;;22.31;100.00;96620.69;1045602;28;20025;-71
2022/10/17 14:00:05;;;;;;;4.00;1.48;;;;;;;22.30;100.00;96612.97;1050576;28;20103;-69
2022/10/17 14:00:35;;;;;;;2.15;1.38;;;;;;;22.40;100.00;96615.34;1045201;28;20326;-70
2022/10/17 14:01:07;;;;;;;4.18;1.73;;;;;;;22.36;100.00;96607.13;1053814;28;20012;-70
2022/10/17 14:01:37;;;;;;;4.50;1.65;;;;;;;22.35;100.00;96610.16;1049284;28;20024;-71
2022/10/17 14:02:16;;;;;;;2.35;1.85;;;;;;;22.43;100.00;96611.22;1050216;28;20067;-71
2022/10/17 14:02:47;;;;;;;1.65;1.27;;;;;;;22.41;100.00;96613.44;1046709;28;20024;-70
2022/10/17 14:03:19;;;;;;;3.15;1.45;;;;;;;22.30;100.00;96612.97;1044589;28;20405;-70
2022/10/17 14:03:50;;;;;;;1.33;1.23;;;;;;;22.10;100.00;96614.41;1044260;28;20022;-71
2022/10/17 14:04:21;;;;;;;2.53;1.17;;;;;;;22.06;100.00;96621.44;1047012;28;20299;-71
2022/10/17 14:05:07;;;;;;;1.23;1.10;;;;;;;22.11;100.00;96622.09;1046667;28;20013;-70
2022/10/17 14:06:10;;;;;;;1.30;0.90;;;;;;;22.21;100.00;96615.66;1050131;28;20027;-72
2022/10/17 14:06:42;;;;;;;1.23;0.88;;;;;;;22.13;100.00;96611.88;1059643;27;20004;-71
2022/10/17 14:07:24;;;;;;;2.20;1.20;;;;;;;22.19;100.00;96620.53;1055377;28;20747;-69
2022/10/17 14:07:58;;;;;;;1.50;1.00;;;;;;;22.22;100.00;96622.56;1045973;28;20074;-70
2022/10/17 14:08:29;;;;;;;2.28;1.30;;;;;;;22.12;100.00;96617.50;1046449;28;20032;-68
2022/10/17 14:09:02;;;;;;;1.58;1.25;;;;;;;22.02;100.00;96615.94;1046336;28;20555;-69
2022/10/17 14:09:35;;;;;;;1.70;1.45;;;;;;;21.97;100.00;96616.13;1042341;28;20017;-71
2022/10/17 14:10:29;;;;;;;5.10;1.33;;;;;;;22.02;100.00;96613.28;1043259;28;20013;-71
2022/10/17 14:11:01;;;;;;;2.58;1.20;;;;;;;21.88;100.00;96618.78;1043704;28;20021;-70
2022/10/17 14:11:36;;;;;;;2.53;1.45;;;;;;;21.97;100.00;96620.69;1049909;28;20269;-70
2022/10/17 14:12:11;;;;;;;2.75;1.17;;;;;;;22.06;100.00;96624.13;1049757;28;20808;-72
2022/10/17 14:12:42;;;;;;;1.67;1.40;;;;;;;22.00;100.00;96620.03;1047183;28;20078;-69
2022/10/17 14:13:34;;;;;;;1.90;1.30;;;;;;;22.06;100.00;96616.88;1048031;28;20681;-69
2022/10/17 14:14:13;;;;;;;4.15;1.10;;;;;;;22.04;100.00;96615.66;1049203;28;20075;-70
2022/10/17 14:14:51;;;;;;;3.08;1.50;;;;;;;22.04;100.00;96621.00;1045634;28;20033;-69
2022/10/17 14:15:25;;;;;;;1.45;1.25;;;;;;;22.04;100.00;96623.66;1041934;28;20021;-69
2022/10/17 14:15:58;;;;;;;2.05;1.20;;;;;;;21.93;100.00;96598.34;1045814;28;20027;-70
2022/10/17 14:16:37;;;;;;;3.40;1.63;;;;;;;22.03;100.00;96614.88;1045128;28;20084;-70
2022/10/17 14:17:17;;;;;;;2.65;1.40;;;;;;;21.89;100.00;96625.69;1046208;28;20028;-71
2022/10/17 14:17:53;;;;;;;1.77;1.33;;;;;;;21.85;100.00;96622.06;1048561;28;20019;-70
2022/10/17 14:18:27;;;;;;;1.77;1.27;;;;;;;21.84;100.00;96617.84;1049544;28;20020;-70
2022/10/17 14:18:57;;;;;;;1.33;1.08;;;;;;;21.85;100.00;96614.06;1048070;28;20016;-72
2022/10/17 14:19:32;;;;;;;2.03;1.27;;;;;;;21.80;100.00;96616.88;1045744;28;20024;-71
2022/10/17 14:20:03;;;;;;;1.42;1.17;;;;;;;21.85;100.00;96619.41;1048450;28;20063;-69
2022/10/17 14:20:36;;;;;;;2.03;1.35;;;;;;;21.93;100.00;96617.84;1054304;28;20044;-70
2022/10/17 14:21:07;;;;;;;1.90;0.98;;;;;;;21.91;100.00;96622.72;1048978;28;20020;-70
2022/10/17 14:21:38;;;;;;;3.78;1.65;;;;;;;21.93;100.00;96619.72;1052635;28;20039;-73
2022/10/17 14:22:37;;;;;;;3.25;1.30;;;;;;;21.97;100.00;96624.13;1045103;28;20314;-72
2022/10/17 14:23:25;;;;;;;3.20;1.55;;;;;;;21.99;100.00;96623.81;1037373;28;20043;-72
2022/10/17 14:24:18;;;;;;;2.75;1.17;;;;;;;21.98;100.00;96620.34;1055247;27;20524;-72
2022/10/17 14:24:50;;;;;;;1.60;1.30;;;;;;;21.97;100.00;96616.13;1052677;28;20138;-69
2022/10/17 14:25:38;;;;;;;5.00;1.58;;;;;;;21.93;100.00;96620.53;1050063;28;20406;-74
2022/10/17 14:26:12;;;;;;;1.80;1.23;;;;;;;21.89;100.00;96615.00;1051903;28;20020;-72
2022/10/17 14:27:00;;;;;;;2.25;1.13;;;;;;;21.87;100.00;96619.09;1046288;28;20017;-70
2022/10/17 14:27:54;;;;;;;4.35;1.30;;;;;;;21.59;100.00;96578.50;1048225;28;20032;-70
2022/10/17 14:28:24;;;;;;;2.80;1.08;;;;;;;21.82;100.00;96616.56;1051485;28;20030;-71
2022/10/17 14:29:40;;;;;;;3.25;1.45;;;;;;;21.83;100.00;96615.47;1043078;28;20040;-72
2022/10/17 14:30:38;;;;;;;3.38;1.10;;;;;;;21.86;100.00;96621.00;1042710;28;20044;-71
2022/10/17 14:31:33;;;;;;;2.35;1.33;;;;;;;21.87;100.00;96616.44;1046765;28;20457;-72
2022/10/17 14:32:09;;;;;;;1.50;1.25;;;;;;;21.85;100.00;96619.41;1046292;28;20029;-72
2022/10/17 14:32:41;;;;;;;2.28;1.10;;;;;;;21.88;100.00;96623.34;1040611;28;20029;-72
2022/10/17 14:33:18;;;;;;;2.30;1.50;;;;;;;21.87;100.00;96617.22;1042375;28;20112;-74
2022/10/17 14:33:48;;;;;;;2.25;1.58;;;;;;;21.82;100.00;96616.56;1045937;28;20020;-71
2022/10/17 14:34:25;;;;;;;2.15;1.20;;;;;;;21.79;100.00;96620.63;1045807;28;20048;-71
2022/10/17 14:34:57;;;;;;;1.23;1.08;;;;;;;21.82;100.00;96624.59;1043420;28;20017;-72
2022/10/17 14:35:27;;;;;;;1.50;1.08;;;;;;;21.82;100.00;96616.56;1046701;28;20009;-73
2022/10/17 14:36:02;;;;;;;3.65;1.35;;;;;;;21.65;100.00;96601.31;1044051;28;20394;-71
2022/10/17 14:36:40;;;;;;;6.18;1.38;;;;;;;21.76;100.00;96623.16;1043114;28;20021;-73
2022/10/17 14:37:46;;;;;;;2.92;1.45;;;;;;;21.76;100.00;96618.59;1045965;28;20057;-71
2022/10/17 14:38:17;;;;;;;1.42;1.00;;;;;;;21.67;100.00;96617.03;1050946;28;20410;-71
2022/10/17 14:38:50;;;;;;;2.38;1.20;;;;;;;21.70;100.00;96611.84;1048439;28;20012;-73
2022/10/17 14:39:23;;;;;;;5.85;1.20;;;;;;;21.65;100.00;96617.31;1042429;28;20029;-71
2022/10/17 14:39:54;;;;;;;2.45;1.20;;;;;;;21.68;100.00;96610.59;1043187;28;20025;-71
2022/10/17 14:40:26;;;;;;;2.65;1.10;;;;;;;21.67;100.00;96617.03;1042772;28;20104;-71
2022/10/17 14:41:18;;;;;;;2.65;0.98;;;;;;;21.70;100.00;96619.88;1051762;28;20005;-70
2022/10/17 14:41:49;;;;;;;1.15;1.02;;;;;;;21.80;100.00;96619.56;1055376;28;20019;-70
2022/10/17 14:42:21;;;;;;;3.00;1.35;;;;;;;21.74;100.00;96618.13;1042692;28;20029;-71
2022/10/17 14:42:56;;;;;;;1.42;1.05;;;;;;;21.74;100.00;96618.13;1042342;28;20077;-71
2022/10/17 14:43:28;;;;;;;3.20;1.50;;;;;;;21.75;100.00;96622.38;1038461;28;20399;-70
2022/10/17 14:44:01;;;;;;;3.35;1.30;;;;;;;21.73;100.00;96619.25;1040542;28;20104;-72
2022/10/17 14:44:33;;;;;;;3.30;1.13;;;;;;;21.73;100.00;96619.25;1046785;28;20079;-71
2022/10/17 14:45:08;;;;;;;2.70;1.45;;;;;;;21.71;100.00;96618.75;1050911;28;20118;-71
2022/10/17 14:45:38;;;;;;;2.85;1.20;;;;;;;21.66;100.00;96621.56;1047034;28;20055;-71
2022/10/17 14:46:15;;;;;;;3.30;0.90;;;;;;;21.63;100.00;96628.34;1049843;28;20024;-70
2022/10/17 14:46:46;;;;;;;5.32;1.10;;;;;;;21.51;100.00;96603.31;1051371;28;20028;-72
2022/10/17 14:47:23;;;;;;;1.02;1.02;;;;;;;21.58;100.00;96625.03;1050939;28;20086;-71
2022/10/17 14:47:55;;;;;;;1.25;1.10;;;;;;;21.52;100.00;96618.25;1044367;28;20128;-71
2022/10/17 14:48:26;;;;;;;1.17;0.80;;;;;;;21.53;100.00;96625.97;1045349;28;20060;-71
2022/10/17 14:49:05;;;;;;;3.08;0.90;;;;;;;21.49;100.00;96626.88;1046366;28;20496;-73
2022/10/17 14:49:38;;;;;;;5.47;1.13;;;;;;;21.53;100.00;96617.94;1047369;28;20645;-73
2022/10/17 14:50:11;;;;;;;1.10;0.95;;;;;;;21.58;100.00;96622.34;1052749;28;20039;-73
2022/10/17 14:51:02;;;;;;;6.38;1.15;;;;;;;21.48;100.00;96619.97;1047869;28;20090;-70
2022/10/17 14:51:33;;;;;;;;;;;;;;;21.52;100.00;96628.94;1057539;28;20025;-73
2022/10/17 14:52:15;;;;;;;2.10;1.45;;;;;;;21.46;100.00;96624.81;1051561;28;19911;-71
2022/10/17 14:53:19;;;;;;;1.85;0.90;;;;;;;21.55;100.00;96625.63;1050805;28;20008;-73
2022/10/17 14:54:19;;;;;;;1.25;1.10;;;;;;;21.41;100.00;96623.09;1054116;28;20058;-71
2022/10/17 14:54:50;;;;;;;2.22;0.82;;;;;;;21.38;100.00;96632.50;1054113;28;20024;-71
2022/10/17 14:55:25;;;;;;;1.35;1.02;;;;;;;21.45;100.00;96631.28;1051381;28;20030;-71
2022/10/17 14:55:58;;;;;;;1.13;1.00;;;;;;;21.44;100.00;96624.38;1046446;28;20028;-73
2022/10/17 14:56:39;;;;;;;4.32;1.15;;;;;;;21.39;100.00;96622.59;1045268;28;20024;-72
2022/10/17 14:57:18;;;;;;;1.25;0.88;;;;;;;21.44;100.00;96630.50;1044599;28;20087;-71
2022/10/17 14:57:49;;;;;;;1.38;1.10;;;;;;;21.39;100.00;96628.75;1044231;28;20435;-71
2022/10/17 14:58:27;;;;;;;1.73;1.10;;;;;;;21.38;100.00;96626.38;1045558;28;20067;-72
2022/10/17 14:58:58;;;;;;;2.28;0.90;;;;;;;21.41;100.00;96629.22;1042904;28;20021;-70
2022/10/17 14:59:28;;;;;;;2.03;1.00;;;;;;;21.36;100.00;96628.56;1039544;28;20029;-70
2022/10/17 14:59:59;;;;;;;1.25;0.85;;;;;;;21.35;100.00;96633.13;1040965;28;20021;-72
2022/10/17 15:00:30;;;;;;;3.20;1.02;;;;;;;21.37;100.00;96630.94;1047429;28;20020;-71
2022/10/17 15:01:01;;;;;;;3.38;1.30;;;;;;;21.31;100.00;96626.81;1049981;28;20024;-70
2022/10/17 15:01:32;;;;;;;0.98;0.90;;;;;;;21.30;100.00;96630.56;1043545;28;20654;-73
2022/10/17 15:02:03;;;;;;;1.40;1.13;;;;;;;21.33;100.00;96631.84;1045412;28;20455;-71
2022/10/17 15:02:34;;;;;;;3.17;1.10;;;;;;;21.31;100.00;96632.16;1042611;28;20040;-71
2022/10/17 15:03:04;;;;;;;1.23;1.02;;;;;;;21.27;100.00;96631.19;1039291;28;20014;-72
2022/10/17 15:03:35;;;;;;;3.60;1.40;;;;;;;21.24;100.00;96626.47;1036649;28;20077;-71
2022/10/17 15:04:09;;;;;;;1.20;0.77;;;;;;;21.14;100.00;96621.41;1040955;28;20151;-72
2022/10/17 15:04:40;;;;;;;3.63;1.00;;;;;;;21.07;100.00;96621.06;1040073;28;20091;-72
2022/10/17 15:05:11;;;;;;;3.35;1.13;;;;;;;21.12;100.00;96626.25;1038340;28;20894;-73
2022/10/17 15:05:42;;;;;;;1.20;1.08;;;;;;;21.11;100.00;96630.03;1044079;28;20017;-70
2022/10/17 15:06:26;;;;;;;2.78;1.33;;;;;;;21.06;100.00;96635.50;1039435;28;20422;-70
2022/10/17 15:06:56;;;;;;;3.72;1.00;;;;;;;20.99;100.00;96627.94;1037999;28;20029;-72
2022/10/17 15:07:28;;;;;;;1.23;1.13;;;;;;;20.99;100.00;96633.25;1048135;28;20029;-73
2022/10/17 15:07:58;;;;;;;3.90;1.48;;;;;;;20.93;100.00;96634.53;1047187;28;20021;-73
2022/10/17 15:08:29;;;;;;;7.53;1.70;;;;;;;20.87;100.00;96630.41;1041648;28;20089;-71
2022/10/17 15:09:00;;;;;;;2.70;1.67;;;;;;;20.91;100.00;96634.03;1042632;28;20025;-70
2022/10/17 15:09:30;;;;;;;2.25;2.05;;;;;;;20.86;100.00;96634.16;1036951;28;20028;-70
2022/10/17 15:10:01;;;;;;;1.90;1.40;;;;;;;20.82;100.00;96630.53;1041887;28;20449;-70
2022/10/17 15:10:35;;;;;;;1.83;1.45;;;;;;;20.74;100.00;96631.28;1040421;28;20172;-72
2022/10/17 15:11:08;;;;;;;3.97;1.33;;;;;;;20.71;100.00;96636.13;1043907;28;20048;-72
2022/10/17 15:11:39;;;;;;;3.42;1.10;;;;;;;20.57;100.00;96618.63;1044141;28;20389;-72
2022/10/17 15:12:23;;;;;;;2.30;1.38;;;;;;;20.64;100.00;96626.97;1043006;28;20032;-71
2022/10/17 15:12:54;;;;;;;1.35;0.95;;;;;;;20.65;100.00;96639.22;1044396;28;20017;-71
2022/10/17 15:13:25;;;;;;;1.83;1.00;;;;;;;20.60;100.00;96631.34;1045154;28;20021;-72
2022/10/17 15:13:55;;;;;;;0.80;0.70;;;;;;;20.61;100.00;96635.59;1037278;28;20302;-72
2022/10/17 15:14:26;;;;;;;3.00;1.35;;;;;;;20.57;100.00;96631.97;1046886;28;20111;-73
2022/10/17 15:14:57;;;;;;;1.13;0.90;;;;;;;20.55;100.00;96634.13;1047220;28;20066;-73
2022/10/17 15:15:28;;;;;;;1.27;0.80;;;;;;;20.46;100.00;96639.41;1039746;28;20799;-72
2022/10/17 15:15:59;;;;;;;2.95;1.10;;;;;;;20.45;100.00;96632.47;1038373;28;20085;-73
2022/10/17 15:16:31;;;;;;;6.05;1.15;;;;;;;20.40;100.00;96624.59;1035179;28;20425;-71
2022/10/17 15:17:01;;;;;;;10.27;1.55;;;;;;;20.40;100.00;96629.94;1038765;28;20060;-72
2022/10/17 15:17:33;;;;;;;2.45;1.33;;;;;;;20.35;100.00;96633.50;1046404;28;20012;-73
2022/10/17 15:18:04;;;;;;;1.58;1.23;;;;;;;20.28;100.00;96629.69;1047997;28;20013;-72
2022/10/17 15:18:38;;;;;;;1.52;1.10;;;;;;;20.28;100.00;96633.13;1046025;28;20021;-71
2022/10/17 15:19:08;;;;;;;2.63;0.90;;;;;;;20.27;100.00;96628.91;1050737;28;20032;-72
2022/10/17 15:19:39;;;;;;;1.88;1.20;;;;;;;20.12;100.00;96618.59;1043568;28;20029;-72
2022/10/17 15:20:15;;;;;;;3.30;0.77;;;;;;;20.20;100.00;96632.00;1045617;28;20017;-73
2022/10/17 15:20:46;;;;;;;3.33;1.20;;;;;;;20.15;100.00;96641.97;1043401;28;20369;-72
2022/10/17 15:21:18;;;;;;;3.33;1.33;;;;;;;20.06;100.00;96625.94;1038506;28;20029;-72
2022/10/17 15:21:49;;;;;;;1.58;0.98;;;;;;;20.05;100.00;96629.66;1041291;28;20048;-72
2022/10/17 15:22:20;;;;;;;1.67;0.98;;;;;;;19.99;100.00;96631.69;1039594;28;20063;-73
2022/10/17 15:22:52;;;;;;;2.33;1.20;;;;;;;19.97;100.00;96633.84;1047460;28;20059;-70
2022/10/17 15:23:23;;;;;;;1.52;1.10;;;;;;;19.95;100.00;96635.22;1046529;28;20028;-70
2022/10/17 15:23:54;;;;;;;2.72;1.10;;;;;;;19.90;100.00;96633.47;1047658;28;20857;-71
2022/10/17 15:24:24;;;;;;;2.60;0.95;;;;;;;19.90;100.00;96633.47;1049007;27;20496;-71
2022/10/17 15:24:55;;;;;;;2.42;1.05;;;;;;;19.88;100.00;96637.50;1054390;28;20039;-72
2022/10/17 15:25:27;;;;;;;1.30;0.90;;;;;;;19.83;100.00;96638.41;1048508;28;20505;-72
2022/10/17 15:25:57;;;;;;;7.00;1.88;;;;;;;19.80;100.00;96639.03;1044353;28;20518;-71
2022/10/17 15:26:32;;;;;;;1.45;1.35;;;;;;;19.77;100.00;96636.94;1038675;28;20021;-72
2022/10/17 15:27:15;;;;;;;4.60;1.40;;;;;;;19.70;100.00;96628.59;1045924;28;20055;-71
2022/10/17 15:27:45;;;;;;;1.45;1.00;;;;;;;19.67;100.00;96640.63;1047129;28;20115;-72
2022/10/17 15:28:16;;;;;;;3.17;1.30;;;;;;;19.64;100.00;96645.75;1042349;28;20033;-71
2022/10/17 15:28:48;;;;;;;3.47;0.88;;;;;;;19.60;100.00;96634.09;1045840;28;20111;-72
2022/10/17 15:29:19;;;;;;;1.17;0.80;;;;;;;19.58;100.00;96641.59;1042735;28;20030;-72
2022/10/17 15:29:52;;;;;;;1.63;0.90;;;;;;;19.56;100.00;96641.91;1043056;28;20036;-72
2022/10/17 15:30:33;;;;;;;1.85;1.00;;;;;;;19.51;100.00;96641.97;1043801;28;20021;-71
2022/10/17 15:31:04;;;;;;;6.38;1.10;;;;;;;19.48;100.00;96651.38;1050243;28;20008;-71
2022/10/17 15:31:38;;;;;;;2.88;1.52;;;;;;;19.45;100.00;96643.97;1047530;28;20017;-72
2022/10/17 15:32:08;;;;;;;2.42;1.08;;;;;;;19.43;100.00;96651.47;1047487;28;20107;-69
2022/10/17 15:32:39;;;;;;;1.40;1.30;;;;;;;19.37;100.00;96644.66;1040961;28;20022;-72
2022/10/17 15:33:10;;;;;;;2.13;1.50;;;;;;;19.35;100.00;96646.84;1041428;28;20089;-72
2022/10/17 15:33:41;;;;;;;4.20;1.13;;;;;;;19.36;100.00;96652.94;1045834;28;20032;-71
2022/10/17 15:34:11;;;;;;;5.15;1.15;;;;;;;19.34;100.00;96645.25;1041180;28;20088;-71
2022/10/17 15:34:42;;;;;;;2.72;0.80;;;;;;;19.28;100.00;96649.91;1049788;28;20036;-73
2022/10/17 15:35:13;;;;;;;1.55;1.02;;;;;;;19.27;100.00;96642.19;1048609;28;20017;-72
2022/10/17 15:35:44;;;;;;;1.58;1.23;;;;;;;19.28;100.00;96647.22;1039559;28;20534;-73
2022/10/17 15:36:18;;;;;;;5.82;1.20;;;;;;;19.26;100.00;96651.28;1042882;28;20100;-70
2022/10/17 15:36:51;;;;;;;7.72;1.52;;;;;;;19.15;100.00;96639.22;1044368;28;20021;-71
2022/10/17 15:37:23;;;;;;;5.32;1.35;;;;;;;19.05;100.00;96630.38;1047408;28;20763;-70
2022/10/17 15:37:54;;;;;;;11.00;1.88;;;;;;;19.06;100.00;96647.13;1042920;28;20056;-73
2022/10/17 15:38:24;;;;;;;11.40;2.70;;;;;;;18.92;100.00;96633.81;1047088;28;20025;-71
2022/10/17 15:38:57;;;;;;;3.03;1.08;;;;;;;18.97;100.00;96652.31;1042876;28;20056;-72
2022/10/17 15:39:27;;;;;;;8.88;1.30;;;;;;;18.99;100.00;96646.72;1039201;28;20025;-72
2022/10/17 15:39:58;;;;;;;8.13;1.05;;;;;;;19.01;100.00;96657.84;1047402;28;20031;-72
2022/10/17 15:40:32;;;;;;;3.28;1.80;;;;;;;18.92;100.00;96656.97;1040317;28;20025;-70
2022/10/17 15:41:02;;;;;;;2.15;1.20;;;;;;;18.89;100.00;96653.00;1043222;28;20017;-71
2022/10/17 15:41:36;;;;;;;8.75;1.42;;;;;;;18.86;100.00;96663.44;1042950;28;20029;-71
2022/10/17 15:42:10;;;;;;;3.00;0.90;;;;;;;18.83;100.00;96659.50;1038887;28;20017;-73
2022/10/17 15:42:41;;;;;;;5.65;1.30;;;;;;;18.77;100.00;96660.66;1044283;28;20566;-72
2022/10/17 15:43:11;;;;;;;1.50;1.27;;;;;;;18.74;100.00;96662.03;1042927;28;20025;-71
2022/10/17 15:43:42;;;;;;;6.35;1.85;;;;;;;18.73;100.00;96662.31;1043911;28;20028;-71
2022/10/17 15:44:13;;;;;;;9.60;1.15;;;;;;;18.74;100.00;96663.91;1047052;28;20025;-72
2022/10/17 15:44:44;;;;;;;4.97;1.33;;;;;;;18.66;100.00;96659.22;1042820;28;20021;-71
2022/10/17 15:45:15;;;;;;;2.28;1.33;;;;;;;18.63;100.00;96671.22;1042309;28;20076;-70
2022/10/17 15:45:46;;;;;;;1.27;0.98;;;;;;;18.56;100.00;96662.84;1040819;28;20017;-72
2022/10/17 15:46:22;;;;;;;4.20;1.00;;;;;;;18.51;100.00;96661.06;1042662;28;20196;-70
2022/10/17 15:46:53;;;;;;;3.15;1.10;;;;;;;18.50;100.00;96662.13;1042490;28;20028;-73
2022/10/17 15:47:25;;;;;;;3.53;1.38;;;;;;;18.51;100.00;96666.38;1045761;28;20108;-70
2022/10/17 15:47:59;;;;;;;5.05;1.17;;;;;;;18.47;100.00;96661.91;1043383;28;20025;-69
2022/10/17 15:48:30;;;;;;;2.85;0.93;;;;;;;18.41;100.00;96663.88;1039681;28;20029;-72
2022/10/17 15:49:06;;;;;;;3.20;1.98;;;;;;;18.40;100.00;96662.28;1041548;28;20315;-72
2022/10/17 15:49:36;;;;;;;4.82;1.20;;;;;;;18.37;100.00;96662.84;1039413;28;20029;-72
2022/10/17 15:50:12;;;;;;;4.43;1.48;;;;;;;18.34;100.00;96660.78;1043698;28;20051;-71
2022/10/17 15:50:44;;;;;;;3.58;0.98;;;;;;;18.30;100.00;96668.53;1054291;28;20802;-71
2022/10/17 15:51:15;;;;;;;1.20;1.10;;;;;;;18.30;100.00;96675.72;1052780;28;20028;-72
2022/10/17 15:51:45;;;;;;;1.10;1.00;;;;;;;18.23;100.00;96670.78;1047074;28;20054;-71
2022/10/17 15:52:16;;;;;;;3.28;1.77;;;;;;;18.20;100.00;96671.34;1041352;28;20021;-71
2022/10/17 15:52:49;;;;;;;1.17;0.93;;;;;;;18.15;100.00;96668.78;1035259;28;20025;-71
2022/10/17 15:53:21;;;;;;;2.53;1.30;;;;;;;18.14;100.00;96670.66;1037163;28;20017;-72
2022/10/17 15:53:54;;;;;;;2.03;1.42;;;;;;;18.13;100.00;96671.72;1038250;28;20667;-72
2022/10/17 15:54:25;;;;;;;2.20;1.05;;;;;;;18.11;100.00;96676.53;1039484;28;20034;-72
2022/10/17 15:54:55;;;;;;;2.70;1.20;;;;;;;18.04;100.00;96670.78;1044373;28;20013;-72
2022/10/17 15:55:26;;;;;;;1.08;0.90;;;;;;;17.99;100.00;96670.84;1044214;28;20323;-72
2022/10/17 15:55:57;;;;;;;1.38;1.00;;;;;;;17.94;100.00;96676.25;1051575;28;20126;-71
2022/10/17 15:56:39;;;;;;;0.80;0.70;;;;;;;17.91;100.00;96671.50;1046959;28;20099;-71
2022/10/17 15:57:37;;;;;;;1.73;1.30;;;;;;;17.88;100.00;96677.38;1043724;28;20073;-71
2022/10/17 15:58:12;;;;;;;1.75;1.00;;;;;;;17.87;100.00;96681.09;1040425;28;20100;-71
2022/10/17 15:58:43;;;;;;;1.65;0.93;;;;;;;17.82;100.00;96681.97;1047703;28;20016;-73
2022/10/17 15:59:15;;;;;;;5.15;1.20;;;;;;;17.79;100.00;96681.75;1055338;28;20088;-71
2022/10/17 15:59:45;;;;;;;3.72;1.13;;;;;;;17.73;100.00;96682.84;1049844;28;20619;-70
2022/10/17 16:00:21;;;;;;;1.27;1.10;;;;;;;17.66;100.00;96676.03;1048347;28;20017;-72
2022/10/17 16:00:52;;;;;;;1.92;1.35;;;;;;;17.65;100.00;96679.75;1043373;28;20021;-70
2022/10/17 16:01:25;;;;;;;2.33;1.20;;;;;;;17.64;100.00;96683.50;1038947;28;20109;-70
2022/10/17 16:01:55;;;;;;;2.75;1.15;;;;;;;17.62;100.00;96682.97;1039361;28;20486;-70
2022/10/17 16:02:26;;;;;;;2.13;0.90;;;;;;;17.37;100.00;96643.47;1043486;28;20104;-72
2022/10/17 16:03:02;;;;;;;2.35;1.20;;;;;;;17.52;100.00;96677.00;1042923;28;20036;-72
2022/10/17 16:03:33;;;;;;;3.70;1.25;;;;;;;17.54;100.00;96682.81;1044594;28;20046;-72
2022/10/17 16:04:04;;;;;;;2.30;1.02;;;;;;;17.28;100.00;96651.28;1049365;28;20052;-72
2022/10/17 16:04:34;;;;;;;2.58;1.52;;;;;;;17.47;100.00;96683.19;1056018;28;20020;-72
2022/10/17 16:05:12;;;;;;;2.85;1.00;;;;;;;17.43;100.00;96687.44;1051362;28;20031;-71
2022/10/17 16:05:43;;;;;;;2.03;1.20;;;;;;;17.36;100.00;96685.13;1043959;28;20032;-71
2022/10/17 16:06:13;;;;;;;3.08;1.38;;;;;;;17.36;100.00;96694.94;1040949;28;20069;-71
2022/10/17 16:06:44;;;;;;;5.57;1.25;;;;;;;17.30;100.00;96688.91;1043006;28;20064;-72
2022/10/17 16:07:16;;;;;;;2.85;1.30;;;;;;;17.23;100.00;96683.16;1042967;28;20120;-69
2022/10/17 16:07:47;;;;;;;3.25;1.20;;;;;;;17.24;100.00;96694.56;1039689;28;20208;-72
2022/10/17 16:08:17;;;;;;;3.83;2.50;;;;;;;17.18;100.00;96689.31;1037366;28;20029;-71
2022/10/17 16:08:48;;;;;;;2.35;1.40;;;;;;;17.18;100.00;96691.16;1038556;28;20064;-71
2022/10/17 16:09:19;;;;;;;3.25;1.73;;;;;;;16.68;100.00;96625.06;1043036;28;20032;-71
2022/10/17 16:09:49;;;;;;;4.50;1.58;;;;;;;17.04;100.00;96680.44;1039684;28;20025;-71
2022/10/17 16:10:21;;;;;;;3.70;1.02;;;;;;;17.08;100.00;96701.88;1043409;28;20035;-70
2022/10/17 16:10:51;;;;;;;3.42;1.27;;;;;;;17.04;100.00;96691.03;1047165;28;20036;-72
2022/10/17 16:11:30;;;;;;;2.83;1.35;;;;;;;17.01;100.00;96690.81;1046506;28;20023;-71
2022/10/17 16:12:01;;;;;;;2.15;1.20;;;;;;;17.02;100.00;96697.69;1045931;28;20444;-72
2022/10/17 16:12:35;;;;;;;2.78;1.70;;;;;;;16.96;100.00;96694.28;1041341;28;20527;-72
2022/10/17 16:13:12;;;;;;;3.30;1.60;;;;;;;16.98;100.00;96696.69;1051102;28;20032;-73
2022/10/17 16:13:46;;;;;;;1.55;1.05;;;;;;;16.89;100.00;96694.63;1043376;28;20096;-71
2022/10/17 16:14:17;;;;;;;1.55;1.10;;;;;;;16.91;100.00;96692.47;1047092;28;20127;-72
2022/10/17 16:14:47;;;;;;;1.60;1.25;;;;;;;16.83;100.00;96685.13;1046741;28;20247;-71
2022/10/17 16:15:23;;;;;;;4.50;1.17;;;;;;;16.87;100.00;96702.06;1043523;28;20075;-73
2022/10/17 16:15:54;;;;;;;2.03;1.33;;;;;;;16.80;100.00;96698.97;1046105;28;20051;-72
2022/10/17 16:16:27;;;;;;;4.13;1.30;;;;;;;16.73;100.00;96699.25;1051268;28;20016;-73
2022/10/17 16:16:59;;;;;;;2.55;1.10;;;;;;;16.76;100.00;96699.78;1043705;28;20125;-72
2022/10/17 16:17:29;;;;;;;1.27;1.17;;;;;;;16.71;100.00;96703.25;1039065;28;20077;-72
2022/10/17 16:18:00;;;;;;;3.17;1.20;;;;;;;16.65;100.00;96694.53;1039411;28;20024;-72
2022/10/17 16:18:30;;;;;;;1.52;1.17;;;;;;;16.70;100.00;96705.09;1039540;28;20045;-71
2022/10/17 16:19:01;;;;;;;2.97;1.30;;;;;;;16.66;100.00;96701.41;1042323;28;20060;-71
2022/10/17 16:19:31;;;;;;;3.92;1.20;;;;;;;16.62;100.00;96705.69;1047937;28;20039;-70
2022/10/17 16:20:02;;;;;;;2.00;1.38;;;;;;;16.62;100.00;96708.34;1043469;28;20542;-70
2022/10/17 16:20:33;;;;;;;2.55;1.52;;;;;;;16.57;100.00;96704.94;1044084;28;20025;-72
2022/10/17 16:21:04;;;;;;;5.40;1.70;;;;;;;16.57;100.00;96704.94;1039279;28;21136;-71
2022/10/17 16:21:37;;;;;;;3.67;1.88;;;;;;;16.48;100.00;96694.13;1035895;28;20042;-72
2022/10/17 16:22:36;;;;;;;6.43;2.40;;;;;;;16.49;100.00;96709.75;1043143;28;20013;-70
2022/10/17 16:23:07;;;;;;;9.52;1.63;;;;;;;16.42;100.00;96701.31;1039757;28;20154;-72
2022/10/17 16:23:38;;;;;;;11.63;1.92;;;;;;;16.43;100.00;96710.06;1043833;28;20461;-71
2022/10/17 16:24:10;;;;;;;8.15;2.25;;;;;;;15.89;100.00;96634.16;1050318;28;20583;-72
2022/10/17 16:24:44;;;;;;;8.55;1.73;;;;;;;16.37;100.00;96716.47;1048597;28;20017;-71
2022/10/17 16:25:24;;;;;;;7.07;1.60;;;;;;;16.33;100.00;96718.06;1047520;28;20024;-71
2022/10/17 16:25:54;;;;;;;10.55;1.70;;;;;;;16.27;100.00;96715.47;1039522;28;20055;-71
2022/10/17 16:26:26;;;;;;;4.68;1.38;;;;;;;16.23;100.00;96711.78;1039063;28;20060;-71
2022/10/17 16:26:56;;;;;;;3.30;1.38;;;;;;;16.17;100.00;96710.25;1039061;28;20218;-71
2022/10/17 16:27:27;;;;;;;4.72;1.33;;;;;;;16.17;100.00;96717.41;1043835;28;20076;-72